YBMA

Mount Isa Airport

Mount Isa, Australia
TAF YBMA 212216Z 2200/2212 06010KT CAVOK
Issued Valid From Valid To
Jan-21 @ 22:16 UTC
(2 hours ago)
Jan-22 @ 00:00 UTC
(8 minutes ago)
Jan-22 @ 12:00 UTC
(in 12 hours)
Jan-22 @ 00:00 to Jan-22 @ 12:00
TAF YBMA 212216Z 2200/2212 06010KT CAVOK
Wind Visibility Clouds Conditions
60° at 10 knots 10,000+ meters
  • No significant clouds
TAF YBMA 212216Z 2200/2212 06010KT CAVOK
Issued Jan-21 @ 22:16 UTC
(2 hours ago)
Valid From Jan-22 @ 00:00 UTC
(8 minutes ago)
Valid To Jan-22 @ 12:00 UTC
(in 12 hours)
Jan-22 @ 00:00 - Jan-22 @ 12:00
Wind Visibility
60° at 10 knots 10,000+ meters
Clouds
  • No significant clouds
Conditions